Time;durP1;ratioP1;P1;durP2;ratioP2;P2;SDS_P1;SDS_P2;PMS_P1;PMS_P2;Temp;Humidity;BMP_temperature;BMP_pressure;BME280_temperature;BME280_humidity;BME280_pressure;Samples;Min_cycle;Max_cycle;Signal;HPM_P1;HPM_P2
2023/11/04 00:02:05;;;;;;;12.50;11.53;;;7.60;86.40;;;;;;5035106;28;20226;-87
2023/11/04 00:04:31;;;;;;;16.73;12.20;;;7.60;86.40;;;;;;5055345;28;20172;-87
2023/11/04 00:06:57;;;;;;;15.33;11.70;;;7.60;86.40;;;;;;5056427;28;20266;-88
2023/11/04 00:09:22;;;;;;;12.50;11.10;;;7.60;86.40;;;;;;5056255;28;20229;-87
2023/11/04 00:11:48;;;;;;;13.43;12.00;;;7.50;86.40;;;;;;5038367;28;20180;-88
2023/11/04 00:14:13;;;;;;;17.90;12.60;;;7.50;86.30;;;;;;5056332;28;20172;-87
2023/11/04 00:16:39;;;;;;;12.90;11.80;;;7.50;86.50;;;;;;5056335;28;20214;-87
2023/11/04 00:19:05;;;;;;;16.50;12.40;;;7.50;86.50;;;;;;5038356;28;20322;-87
2023/11/04 00:21:30;;;;;;;15.37;11.73;;;7.50;86.30;;;;;;5038265;28;20246;-87
2023/11/04 00:23:57;;;;;;;13.83;12.53;;;7.50;86.20;;;;;;5038358;28;20174;-87
2023/11/04 00:26:22;;;;;;;16.33;12.27;;;7.50;86.30;;;;;;5038308;28;20192;-87
2023/11/04 00:28:48;;;;;;;19.37;13.40;;;7.40;86.50;;;;;;5038162;28;20674;-87
2023/11/04 00:31:13;;;;;;;14.23;11.97;;;7.50;86.30;;;;;;5038259;28;20183;-87
2023/11/04 00:33:39;;;;;;;14.90;12.60;;;7.50;86.40;;;;;;5038169;28;20202;-87
2023/11/04 00:36:05;;;;;;;13.70;12.13;;;7.50;86.20;;;;;;5055774;28;20215;-88
2023/11/04 00:38:31;;;;;;;12.73;11.63;;;7.50;86.20;;;;;;5038078;28;20203;-87
2023/11/04 00:40:56;;;;;;;14.33;12.43;;;7.50;86.00;;;;;;5037970;28;20227;-87
2023/11/04 00:43:21;;;;;;;13.37;12.07;;;7.50;86.20;;;;;;5055676;28;20169;-87
2023/11/04 00:45:47;;;;;;;14.53;11.97;;;7.50;86.30;;;;;;5055635;28;20605;-88
2023/11/04 00:48:12;;;;;;;16.27;11.83;;;7.50;86.30;;;;;;5038065;28;20187;-86
2023/11/04 00:50:38;;;;;;;15.23;12.10;;;7.50;86.10;;;;;;5037775;28;20187;-87
2023/11/04 00:53:04;;;;;;;13.60;12.33;;;7.50;86.10;;;;;;5038480;28;20238;-87
2023/11/04 00:55:30;;;;;;;12.70;11.60;;;7.60;85.90;;;;;;5055364;28;20212;-88
2023/11/04 00:57:55;;;;;;;15.47;12.67;;;7.50;86.10;;;;;;5037608;28;20202;-87
2023/11/04 01:00:26;;;;;;;13.17;11.87;;;7.50;86.20;;;;;;5037820;28;20172;-87
2023/11/04 01:02:55;;;;;;;13.90;12.40;;;7.50;86.10;;;;;;5055246;28;20180;-88
2023/11/04 01:05:22;;;;;;;13.03;11.70;;;7.50;86.30;;;;;;5055268;28;20612;-87
2023/11/04 01:07:48;;;;;;;15.23;12.33;;;7.70;85.70;;;;;;5037539;28;20550;-87
2023/11/04 01:10:14;;;;;;;13.33;12.03;;;7.70;85.60;;;;;;5037557;28;20187;-88
2023/11/04 01:12:40;;;;;;;13.37;12.17;;;7.70;86.00;;;;;;5055329;28;20176;-87
2023/11/04 01:15:06;;;;;;;16.07;13.30;;;7.60;86.10;;;;;;5036186;28;20254;-87
2023/11/04 01:17:32;;;;;;;14.33;12.90;;;7.70;86.00;;;;;;5054932;28;20204;-87
2023/11/04 01:19:57;;;;;;;13.63;12.20;;;7.60;86.00;;;;;;5037203;28;20210;-87
2023/11/04 01:22:23;;;;;;;18.37;13.90;;;7.60;85.80;;;;;;5054978;28;20180;-87
2023/11/04 01:24:49;;;;;;;23.47;21.37;;;7.60;85.90;;;;;;5036970;28;20272;-87
2023/11/04 01:27:14;;;;;;;21.87;20.00;;;7.50;86.20;;;;;;5037023;28;20176;-87
2023/11/04 01:29:39;;;;;;;23.67;20.87;;;7.40;86.30;;;;;;5055060;28;20525;-86
2023/11/04 01:32:06;;;;;;;13.03;11.93;;;7.30;86.30;;;;;;5054909;28;20180;-87
2023/11/04 01:34:31;;;;;;;22.60;13.27;;;7.40;86.30;;;;;;5054867;28;20176;-88
2023/11/04 01:36:57;;;;;;;15.60;14.23;;;7.30;86.40;;;;;;5054848;28;20196;-87
2023/11/04 01:39:22;;;;;;;22.57;20.27;;;7.30;86.40;;;;;;5036947;28;20233;-87
2023/11/04 01:41:48;;;;;;;22.70;20.60;;;7.30;86.30;;;;;;5054902;28;20202;-88
2023/11/04 01:44:14;;;;;;;12.97;11.63;;;7.20;86.70;;;;;;5054789;28;20179;-88
2023/11/04 01:46:41;;;;;;;14.70;11.70;;;7.10;86.90;;;;;;5054642;28;20751;-87
2023/11/04 01:49:07;;;;;;;16.50;11.93;;;7.10;86.80;;;;;;5036678;28;20179;-88
2023/11/04 01:51:34;;;;;;;20.60;19.00;;;7.20;86.40;;;;;;5054439;28;20176;-87
2023/11/04 01:54:00;;;;;;;20.30;18.47;;;7.10;86.70;;;;;;5036764;28;20184;-87
2023/11/04 01:56:39;;;;;;;19.93;18.23;;;7.00;87.00;;;;;;5036330;28;20233;-87
2023/11/04 01:59:06;;;;;;;12.50;11.23;;;7.00;86.90;;;;;;5054273;28;20152;-87
2023/11/04 02:01:34;;;;;;;13.53;12.23;;;7.00;87.10;;;;;;5036372;28;20206;-87
2023/11/04 02:04:01;;;;;;;21.37;19.60;;;7.00;86.80;;;;;;5036410;28;20182;-87
2023/11/04 02:06:27;;;;;;;21.40;19.60;;;7.10;86.50;;;;;;5038276;28;20341;-88
2023/11/04 02:08:55;;;;;;;20.73;18.77;;;7.10;86.30;;;;;;5036228;28;20662;-87
2023/11/04 02:11:20;;;;;;;13.80;12.40;;;7.10;86.10;;;;;;5036131;28;20180;-87
2023/11/04 02:13:46;;;;;;;13.90;12.30;;;7.00;86.40;;;;;;5036044;28;20182;-88
2023/11/04 02:16:11;;;;;;;21.93;20.00;;;7.00;86.40;;;;;;5035977;28;20302;-87
2023/11/04 02:18:37;;;;;;;22.17;20.23;;;7.00;86.30;;;;;;5036109;28;20200;-87
2023/11/04 02:21:02;;;;;;;17.03;15.03;;;7.00;86.30;;;;;;5053702;28;20200;-87
2023/11/04 02:23:28;;;;;;;13.07;11.80;;;6.90;86.30;;;;;;5054010;28;20175;-87
2023/11/04 02:25:54;;;;;;;13.50;11.63;;;7.00;86.20;;;;;;5053715;28;20201;-86
2023/11/04 02:28:21;;;;;;;21.33;19.43;;;7.00;86.10;;;;;;5053535;28;20180;-88
2023/11/04 02:30:47;;;;;;;22.70;20.77;;;6.90;86.30;;;;;;5035866;28;20266;-87
2023/11/04 02:33:12;;;;;;;13.87;12.43;;;6.90;86.10;;;;;;5035739;28;20207;-85
2023/11/04 02:35:38;;;;;;;14.93;12.50;;;6.90;86.30;;;;;;5035570;28;20718;-87
2023/11/04 02:38:03;;;;;;;13.00;11.83;;;6.90;86.30;;;;;;5035601;28;20267;-87
2023/11/04 02:40:29;;;;;;;23.70;21.43;;;6.90;86.10;;;;;;5035709;28;20267;-87
2023/11/04 02:42:55;;;;;;;19.73;18.13;;;6.90;86.10;;;;;;5035539;28;20286;-88
2023/11/04 02:45:21;;;;;;;15.07;13.23;;;6.90;86.00;;;;;;5035519;28;20207;-87
2023/11/04 02:47:46;;;;;;;17.27;12.20;;;6.90;85.90;;;;;;5035502;28;20176;-87
2023/11/04 02:50:13;;;;;;;19.50;17.23;;;6.90;85.90;;;;;;5035497;28;20179;-87
2023/11/04 02:52:40;;;;;;;24.53;20.50;;;6.90;85.80;;;;;;5035398;28;20180;-87
2023/11/04 02:55:06;;;;;;;21.67;19.87;;;6.90;85.70;;;;;;5035247;28;20215;-87
2023/11/04 02:57:31;;;;;;;14.90;12.70;;;6.80;86.00;;;;;;5035328;28;20188;-87
2023/11/04 02:59:57;;;;;;;14.53;13.07;;;6.80;86.00;;;;;;5053245;28;20180;-87
2023/11/04 03:02:23;;;;;;;21.33;19.67;;;6.80;86.10;;;;;;5035400;28;20187;-87
2023/11/04 03:04:48;;;;;;;23.00;20.67;;;6.70;86.10;;;;;;5035321;28;20659;-87
2023/11/04 03:07:14;;;;;;;23.00;21.10;;;6.70;86.30;;;;;;5053101;28;20206;-87
2023/11/04 03:09:40;;;;;;;11.83;10.83;;;6.70;86.20;;;;;;5053035;28;20168;-88
2023/11/04 03:12:06;;;;;;;13.17;11.87;;;6.70;86.30;;;;;;5035230;28;20176;-87
2023/11/04 03:14:31;;;;;;;21.00;19.60;;;6.70;86.30;;;;;;5035336;28;20171;-87
2023/11/04 03:16:57;;;;;;;20.30;18.97;;;6.60;86.50;;;;;;5052855;28;20257;-87
2023/11/04 03:19:24;;;;;;;21.93;20.17;;;6.60;86.50;;;;;;5035211;28;20180;-87
2023/11/04 03:21:50;;;;;;;13.50;12.30;;;6.70;86.20;;;;;;5053032;28;20647;-87
2023/11/04 03:24:16;;;;;;;12.80;11.60;;;6.60;86.40;;;;;;5035512;28;20172;-87
2023/11/04 03:26:42;;;;;;;21.90;20.23;;;6.60;86.60;;;;;;5035164;28;20564;-87
2023/11/04 03:29:07;;;;;;;24.13;22.23;;;6.60;86.40;;;;;;5053141;28;20281;-87
2023/11/04 03:31:34;;;;;;;27.27;25.33;;;6.50;86.70;;;;;;5035328;28;20176;-88
2023/11/04 03:33:59;;;;;;;14.90;13.00;;;6.60;86.50;;;;;;5035324;28;20674;-87
2023/11/04 03:36:25;;;;;;;13.37;12.13;;;6.50;86.50;;;;;;5052948;28;20208;-88
2023/11/04 03:38:51;;;;;;;22.13;20.13;;;6.40;86.60;;;;;;5054450;28;20176;-87
2023/11/04 03:41:16;;;;;;;21.03;19.63;;;6.30;86.80;;;;;;5038859;28;20195;-87
2023/11/04 03:43:42;;;;;;;25.80;23.43;;;6.30;87.00;;;;;;5039023;28;20174;-87
2023/11/04 03:46:07;;;;;;;12.07;10.90;;;6.20;87.20;;;;;;5056618;28;20203;-87
2023/11/04 03:48:33;;;;;;;12.83;10.80;;;6.10;87.40;;;;;;5057047;28;20203;-88
2023/11/04 03:50:59;;;;;;;20.93;19.07;;;6.10;87.60;;;;;;5039001;28;20180;-88
2023/11/04 03:53:24;;;;;;;21.43;19.47;;;6.00;87.80;;;;;;5056575;28;20172;-88
2023/11/04 03:55:50;;;;;;;27.10;24.83;;;6.00;87.90;;;;;;5056612;28;20299;-87
2023/11/04 03:58:15;;;;;;;12.13;10.97;;;6.00;87.90;;;;;;5039225;28;20172;-87
2023/11/04 04:00:41;;;;;;;11.93;10.70;;;6.00;87.90;;;;;;5056762;28;20632;-87
2023/11/04 04:03:07;;;;;;;21.13;18.90;;;6.00;87.80;;;;;;5038708;28;20176;-87
2023/11/04 04:05:33;;;;;;;21.93;19.77;;;6.00;87.80;;;;;;5038617;28;20253;-87
2023/11/04 04:07:58;;;;;;;14.13;10.90;;;6.00;87.80;;;;;;5056228;28;20188;-87
2023/11/04 04:10:25;;;;;;;11.60;10.40;;;6.00;87.80;;;;;;5056328;28;20225;-86
2023/11/04 04:12:54;;;;;;;12.20;11.17;;;6.00;87.80;;;;;;5056246;28;20172;-86
2023/11/04 04:15:20;;;;;;;15.13;11.30;;;5.90;87.80;;;;;;5038334;28;20207;-87
2023/11/04 04:17:45;;;;;;;16.60;11.47;;;6.00;87.90;;;;;;5056417;28;20541;-87
2023/11/04 04:20:16;;;;;;;11.60;10.67;;;6.00;87.90;;;;;;5038174;28;20176;-87
2023/11/04 04:22:42;;;;;;;11.40;10.33;;;5.90;87.90;;;;;;5056301;28;20169;-87
2023/11/04 04:25:08;;;;;;;14.07;11.00;;;5.80;88.00;;;;;;5038245;28;20196;-87
2023/11/04 04:27:34;;;;;;;12.60;11.20;;;5.80;88.00;;;;;;5056318;28;20177;-87
2023/11/04 04:29:59;;;;;;;16.40;11.80;;;5.70;88.00;;;;;;5038404;28;20604;-87
2023/11/04 04:32:25;;;;;;;13.60;11.70;;;5.70;88.10;;;;;;5056324;28;20685;-87
2023/11/04 04:34:50;;;;;;;11.63;10.50;;;5.70;88.20;;;;;;5055784;28;20199;-87
2023/11/04 04:37:16;;;;;;;12.60;11.30;;;5.60;88.20;;;;;;5037971;28;20253;-87
2023/11/04 04:39:41;;;;;;;16.67;11.90;;;5.60;88.30;;;;;;5038145;28;20318;-87
2023/11/04 04:42:07;;;;;;;12.27;11.03;;;5.60;88.30;;;;;;5037776;28;20199;-87
2023/11/04 04:44:33;;;;;;;13.97;11.70;;;5.50;88.30;;;;;;5037883;28;20230;-87
2023/11/04 04:46:59;;;;;;;12.73;11.43;;;5.40;88.40;;;;;;5055548;28;20203;-87
2023/11/04 04:49:25;;;;;;;12.37;11.17;;;5.50;88.50;;;;;;5037140;28;20182;-87
2023/11/04 04:51:51;;;;;;;11.63;10.57;;;5.40;88.40;;;;;;5036971;28;20270;-87
2023/11/04 04:54:16;;;;;;;12.10;10.93;;;5.30;88.60;;;;;;5037856;28;20184;-87
2023/11/04 04:56:41;;;;;;;11.67;10.57;;;5.30;88.70;;;;;;5037772;28;20199;-87
2023/11/04 04:59:08;;;;;;;12.13;10.93;;;5.30;88.80;;;;;;5037739;28;20206;-87
2023/11/04 05:01:33;;;;;;;11.40;10.27;;;5.30;88.80;;;;;;5037530;28;20199;-87
2023/11/04 05:03:59;;;;;;;11.50;10.57;;;5.40;88.80;;;;;;5037595;28;20212;-87
2023/11/04 05:06:25;;;;;;;10.83;9.97;;;5.30;88.80;;;;;;5037581;28;20200;-87
2023/11/04 05:08:51;;;;;;;11.13;10.03;;;5.30;88.90;;;;;;5037552;28;20172;-87
2023/11/04 05:11:16;;;;;;;10.60;9.50;;;5.30;89.10;;;;;;5037621;28;20239;-87
2023/11/04 05:13:42;;;;;;;14.23;9.40;;;5.30;89.10;;;;;;5037523;28;20191;-87
2023/11/04 05:16:08;;;;;;;10.73;9.77;;;5.20;89.20;;;;;;5037136;28;20219;-86
2023/11/04 05:18:33;;;;;;;10.63;9.67;;;5.30;89.30;;;;;;5055116;28;20183;-87
2023/11/04 05:21:02;;;;;;;9.73;8.40;;;5.20;89.30;;;;;;5037285;28;20556;-87
2023/11/04 05:23:31;;;;;;;13.13;9.37;;;5.30;89.40;;;;;;5055401;28;20175;-87
2023/11/04 05:26:00;;;;;;;9.33;8.63;;;5.30;89.50;;;;;;5036978;28;20200;-87
2023/11/04 05:28:26;;;;;;;10.87;9.77;;;5.30;89.40;;;;;;5037043;28;20192;-87
2023/11/04 05:30:52;;;;;;;11.30;10.20;;;5.30;89.30;;;;;;5037061;28;20176;-88
2023/11/04 05:33:17;;;;;;;11.03;9.57;;;5.30;89.40;;;;;;5037194;28;20268;-87
2023/11/04 05:35:44;;;;;;;13.63;9.90;;;5.30;89.30;;;;;;5036566;28;20200;-88
2023/11/04 05:38:10;;;;;;;10.87;9.90;;;5.30;89.20;;;;;;5054590;28;20164;-88
2023/11/04 05:40:36;;;;;;;12.30;10.73;;;5.20;89.30;;;;;;5036949;28;20242;-87
2023/11/04 05:43:01;;;;;;;11.00;9.50;;;5.20;89.30;;;;;;5036729;28;20663;-88
2023/11/04 05:45:27;;;;;;;14.03;9.87;;;5.20;89.40;;;;;;5037528;28;20199;-87
2023/11/04 05:47:53;;;;;;;11.23;10.13;;;5.20;89.40;;;;;;5055098;28;20176;-88
2023/11/04 05:50:19;;;;;;;11.23;9.60;;;5.20;89.40;;;;;;5037050;28;20636;-87
2023/11/04 05:52:45;;;;;;;10.80;10.00;;;5.20;89.40;;;;;;5054297;28;20250;-87
2023/11/04 05:55:14;;;;;;;11.57;10.23;;;5.10;89.50;;;;;;5036244;28;20214;-87
2023/11/04 05:57:40;;;;;;;12.27;11.10;;;5.10;89.50;;;;;;5036360;28;20628;-87
2023/11/04 06:00:11;;;;;;;10.43;9.80;;;5.20;89.60;;;;;;5054268;28;20598;-87
2023/11/04 06:02:40;;;;;;;12.30;10.93;;;5.10;89.50;;;;;;5053726;28;20175;-87
2023/11/04 06:05:08;;;;;;;11.47;10.50;;;5.10;89.50;;;;;;5054145;28;20219;-88
2023/11/04 06:07:34;;;;;;;11.80;10.60;;;5.10;89.50;;;;;;5054378;28;20260;-88
2023/11/04 06:09:59;;;;;;;12.73;9.73;;;5.20;89.60;;;;;;5036215;28;20262;-87
2023/11/04 06:12:25;;;;;;;11.67;10.57;;;5.10;89.60;;;;;;5053881;28;20643;-87
2023/11/04 06:14:51;;;;;;;19.77;18.10;;;5.10;89.70;;;;;;5036110;28;20184;-87
2023/11/04 06:17:16;;;;;;;21.63;18.60;;;5.20;89.70;;;;;;5053814;28;20636;-87
2023/11/04 06:19:42;;;;;;;19.90;17.83;;;5.20;89.80;;;;;;5036206;28;20180;-87
2023/11/04 06:22:07;;;;;;;13.53;8.93;;;5.30;89.90;;;;;;5035969;28;20230;-87
2023/11/04 06:24:37;;;;;;;10.40;9.40;;;5.20;89.80;;;;;;5053827;28;20221;-87
2023/11/04 06:27:02;;;;;;;18.77;16.73;;;5.30;89.90;;;;;;5053708;28;20176;-87
2023/11/04 06:29:28;;;;;;;16.87;15.77;;;5.30;89.80;;;;;;5036187;28;20194;-88
2023/11/04 06:31:53;;;;;;;11.80;10.70;;;5.30;89.80;;;;;;5035919;28;20269;-88
2023/11/04 06:34:19;;;;;;;11.53;9.60;;;5.30;89.80;;;;;;5036046;28;20191;-87
2023/11/04 06:36:44;;;;;;;12.33;9.73;;;5.30;89.80;;;;;;5053500;28;20709;-87
2023/11/04 06:39:10;;;;;;;18.10;16.60;;;5.30;89.80;;;;;;5035699;28;20184;-87
2023/11/04 06:41:35;;;;;;;17.67;16.10;;;5.30;89.80;;;;;;5035756;28;20200;-88
2023/11/04 06:44:01;;;;;;;11.13;9.47;;;5.40;89.90;;;;;;5053635;28;20495;-87
2023/11/04 06:46:26;;;;;;;15.20;10.53;;;5.50;89.90;;;;;;5053532;28;20218;-87
2023/11/04 06:48:52;;;;;;;17.27;15.57;;;5.50;89.90;;;;;;5036455;28;20266;-87
2023/11/04 06:51:18;;;;;;;18.10;16.63;;;5.60;89.90;;;;;;5035808;28;20599;-87
2023/11/04 06:53:44;;;;;;;17.77;16.20;;;5.70;89.80;;;;;;5054239;28;20176;-89
2023/11/04 06:56:10;;;;;;;10.80;9.53;;;5.70;89.70;;;;;;5053486;28;20546;-88
2023/11/04 06:58:35;;;;;;;10.47;9.23;;;5.80;89.60;;;;;;5053411;28;20200;-87
2023/11/04 07:01:01;;;;;;;16.50;15.30;;;5.80;89.50;;;;;;5035491;28;20681;-88
2023/11/04 07:03:29;;;;;;;16.03;14.70;;;5.90;89.40;;;;;;5035491;28;20694;-87
2023/11/04 07:05:55;;;;;;;10.57;9.70;;;5.90;89.30;;;;;;5035401;28;20203;-88
2023/11/04 07:08:20;;;;;;;10.97;10.17;;;6.00;89.20;;;;;;5053307;28;20172;-86
2023/11/04 07:10:46;;;;;;;17.57;15.40;;;6.00;89.20;;;;;;5035291;28;20211;-88
2023/11/04 07:13:13;;;;;;;19.97;15.90;;;6.00;89.10;;;;;;5052433;28;20179;-87
2023/11/04 07:15:40;;;;;;;17.70;16.40;;;6.10;89.00;;;;;;5035163;28;20215;-87
2023/11/04 07:18:07;;;;;;;11.67;10.47;;;6.10;89.00;;;;;;5035160;28;20663;-87
2023/11/04 07:20:37;;;;;;;13.37;11.57;;;6.20;89.00;;;;;;5035258;28;20175;-88
2023/11/04 07:23:03;;;;;;;19.93;18.10;;;6.20;89.00;;;;;;5035168;28;20164;-88
2023/11/04 07:25:29;;;;;;;19.40;18.03;;;6.20;88.90;;;;;;5035145;28;20219;-87
2023/11/04 07:27:58;;;;;;;12.13;11.00;;;6.20;88.80;;;;;;5053164;28;20167;-88
2023/11/04 07:30:24;;;;;;;12.17;11.10;;;6.20;88.70;;;;;;5053226;28;20194;-88
2023/11/04 07:32:50;;;;;;;18.10;16.73;;;6.20;88.70;;;;;;5035175;28;20172;-87
2023/11/04 07:35:16;;;;;;;20.20;18.57;;;6.30;88.70;;;;;;5034902;28;20682;-86
2023/11/04 07:37:41;;;;;;;13.13;11.17;;;6.30;88.70;;;;;;5035577;28;20521;-87
2023/11/04 07:40:08;;;;;;;11.23;10.17;;;6.30;88.60;;;;;;5035005;28;20203;-87
2023/11/04 07:42:34;;;;;;;11.83;10.70;;;6.40;88.60;;;;;;5035135;28;20222;-88
2023/11/04 07:45:00;;;;;;;19.03;17.50;;;6.50;88.40;;;;;;5052828;28;20211;-87
2023/11/04 07:47:25;;;;;;;21.20;19.60;;;6.50;88.30;;;;;;5035007;28;20179;-88
2023/11/04 07:49:51;;;;;;;12.37;11.43;;;6.50;88.20;;;;;;5053088;28;20687;-88
2023/11/04 07:52:17;;;;;;;12.73;11.63;;;6.60;88.30;;;;;;5034922;28;20698;-87
2023/11/04 07:54:43;;;;;;;20.30;18.70;;;6.60;88.20;;;;;;5034888;28;20574;-87
2023/11/04 07:57:09;;;;;;;20.70;18.77;;;6.70;88.10;;;;;;5035038;28;20246;-87
2023/11/04 07:59:36;;;;;;;14.10;13.00;;;6.70;87.90;;;;;;5035120;28;20168;-88
2023/11/04 08:02:01;;;;;;;12.00;11.10;;;6.70;87.60;;;;;;5053056;28;20160;-87
2023/11/04 08:04:27;;;;;;;12.57;11.57;;;6.80;87.70;;;;;;5034880;28;20667;-87
2023/11/04 08:06:52;;;;;;;22.40;20.83;;;6.80;87.80;;;;;;5034700;28;20686;-87
2023/11/04 08:09:18;;;;;;;21.93;20.33;;;6.80;87.70;;;;;;5052486;28;20715;-87
2023/11/04 08:11:43;;;;;;;13.60;12.27;;;6.80;87.60;;;;;;5034706;28;20267;-87
2023/11/04 08:14:09;;;;;;;13.30;12.03;;;6.90;87.60;;;;;;5034875;28;20203;-86
2023/11/04 08:16:35;;;;;;;18.87;17.60;;;6.90;87.40;;;;;;5052438;28;20611;-87
2023/11/04 08:19:00;;;;;;;21.27;19.47;;;6.90;87.30;;;;;;5034802;28;20271;-87
2023/11/04 08:21:29;;;;;;;23.10;21.60;;;7.00;87.10;;;;;;5034787;28;20173;-86
2023/11/04 08:23:57;;;;;;;13.57;12.77;;;7.00;87.20;;;;;;5052441;28;20255;-87
2023/11/04 08:26:22;;;;;;;13.10;11.90;;;7.10;87.30;;;;;;5038363;28;20218;-86
2023/11/04 08:28:51;;;;;;;12.93;11.93;;;7.10;87.10;;;;;;5056611;28;20636;-86
2023/11/04 08:31:19;;;;;;;21.23;19.87;;;7.10;87.10;;;;;;5038206;28;20176;-87
2023/11/04 08:33:48;;;;;;;24.53;21.43;;;7.20;87.10;;;;;;5038358;28;20180;-87
2023/11/04 08:36:14;;;;;;;20.43;19.03;;;7.20;86.90;;;;;;5037992;28;20310;-87
2023/11/04 08:38:40;;;;;;;13.70;12.43;;;7.30;86.80;;;;;;5055746;28;20168;-87
2023/11/04 08:41:05;;;;;;;12.87;11.97;;;7.30;86.70;;;;;;5037849;28;20175;-87
2023/11/04 08:43:31;;;;;;;21.63;20.17;;;7.30;86.60;;;;;;5055879;28;20222;-86
2023/11/04 08:45:56;;;;;;;22.70;21.20;;;7.30;86.50;;;;;;5037883;28;20202;-87
2023/11/04 08:48:22;;;;;;;25.33;23.03;;;7.30;86.60;;;;;;5037897;28;20176;-87
2023/11/04 08:50:47;;;;;;;13.47;12.47;;;7.40;86.60;;;;;;5055522;28;20184;-86
2023/11/04 08:53:13;;;;;;;14.43;13.07;;;7.40;86.60;;;;;;5055583;28;20176;-87
2023/11/04 08:55:39;;;;;;;22.90;21.17;;;7.50;86.40;;;;;;5037518;28;20208;-87
2023/11/04 08:58:04;;;;;;;23.17;21.50;;;7.60;86.40;;;;;;5037653;28;20172;-87
2023/11/04 09:00:30;;;;;;;24.30;22.50;;;7.60;86.30;;;;;;5037559;28;20168;-87
2023/11/04 09:03:01;;;;;;;13.20;12.23;;;7.70;86.10;;;;;;5055565;28;20636;-86
2023/11/04 09:05:27;;;;;;;15.07;13.47;;;7.80;86.30;;;;;;5055357;28;20681;-87
2023/11/04 09:07:53;;;;;;;22.87;21.27;;;7.80;85.90;;;;;;5037532;28;20183;-87
2023/11/04 09:10:19;;;;;;;25.43;23.70;;;8.00;86.00;;;;;;5037266;28;20188;-87
2023/11/04 09:12:45;;;;;;;14.10;13.00;;;8.00;85.90;;;;;;5037541;28;20249;-87
2023/11/04 09:15:11;;;;;;;14.73;13.27;;;8.10;85.60;;;;;;5037197;28;20211;-87
2023/11/04 09:17:38;;;;;;;15.70;14.27;;;8.20;85.50;;;;;;5056633;28;20180;-87
2023/11/04 09:20:07;;;;;;;27.23;25.13;;;8.30;85.40;;;;;;5037466;28;20257;-87
2023/11/04 09:22:32;;;;;;;26.37;24.37;;;8.30;85.30;;;;;;5037311;28;20176;-86
2023/11/04 09:24:58;;;;;;;14.37;13.43;;;8.30;84.90;;;;;;5055009;28;20196;-86
2023/11/04 09:27:24;;;;;;;14.77;13.63;;;8.50;84.80;;;;;;5037378;28;20180;-86
2023/11/04 09:29:49;;;;;;;15.70;14.40;;;8.50;84.10;;;;;;5055086;28;20191;-87
2023/11/04 09:32:17;;;;;;;14.13;13.30;;;8.60;83.60;;;;;;5037114;28;20667;-86
2023/11/04 09:34:43;;;;;;;15.83;14.70;;;8.80;84.00;;;;;;5054696;28;20168;-87
2023/11/04 09:37:09;;;;;;;15.50;14.23;;;8.90;83.30;;;;;;5053719;28;20292;-88
2023/11/04 09:39:34;;;;;;;16.30;15.30;;;9.00;83.30;;;;;;5054680;28;20175;-88
2023/11/04 09:42:00;;;;;;;16.57;15.17;;;9.10;82.60;;;;;;5054656;28;20564;-88
2023/11/04 09:44:26;;;;;;;16.23;14.80;;;9.20;82.60;;;;;;5036757;28;20176;-88
2023/11/04 09:46:51;;;;;;;15.97;14.83;;;9.30;82.50;;;;;;5054548;28;20229;-89
2023/11/04 09:49:18;;;;;;;15.00;13.97;;;9.20;82.10;;;;;;5037074;28;20187;-87
2023/11/04 09:51:44;;;;;;;16.23;15.03;;;9.30;82.00;;;;;;5037786;28;20176;-89
2023/11/04 09:54:11;;;;;;;15.80;14.80;;;9.40;81.60;;;;;;5036453;28;20176;-88
2023/11/04 09:56:37;;;;;;;14.17;13.17;;;9.40;81.40;;;;;;5036427;28;20588;-88
2023/11/04 09:59:07;;;;;;;14.17;13.27;;;9.40;81.80;;;;;;5036594;28;20176;-87
2023/11/04 10:01:32;;;;;;;14.67;13.57;;;9.40;81.90;;;;;;5036509;28;20705;-87
2023/11/04 10:03:58;;;;;;;14.30;13.17;;;9.30;81.70;;;;;;5054155;28;20172;-87
2023/11/04 10:06:25;;;;;;;14.37;13.47;;;9.30;82.10;;;;;;5036323;28;20195;-88
2023/11/04 10:08:51;;;;;;;14.40;13.30;;;9.30;81.60;;;;;;5036312;28;20203;-87
2023/11/04 10:11:17;;;;;;;14.07;13.07;;;9.20;81.70;;;;;;5036548;28;20172;-88
2023/11/04 10:13:43;;;;;;;15.07;13.63;;;9.30;82.20;;;;;;5036375;28;20615;-89
2023/11/04 10:16:08;;;;;;;17.83;13.20;;;9.30;82.20;;;;;;5036047;28;20203;-88
2023/11/04 10:18:34;;;;;;;14.40;13.40;;;9.30;82.10;;;;;;5036084;28;20268;-87
2023/11/04 10:21:00;;;;;;;14.40;13.50;;;9.30;81.70;;;;;;5036035;28;20603;-86
2023/11/04 10:23:26;;;;;;;14.80;13.60;;;9.50;81.50;;;;;;5036058;28;20172;-90
2023/11/04 10:25:51;;;;;;;15.07;13.87;;;9.50;81.50;;;;;;5035772;28;20206;-87
2023/11/04 10:28:18;;;;;;;15.40;14.23;;;9.50;81.60;;;;;;5054008;28;20176;-87
2023/11/04 10:30:44;;;;;;;14.87;13.83;;;9.80;81.50;;;;;;5035879;28;20172;-89
2023/11/04 10:33:13;;;;;;;15.43;14.27;;;9.90;80.80;;;;;;5036040;28;20230;-89
2023/11/04 10:35:41;;;;;;;15.50;14.30;;;9.90;80.20;;;;;;5053742;28;20239;-89
2023/11/04 10:38:11;;;;;;;14.87;13.87;;;9.80;81.10;;;;;;5035913;28;20168;-89
2023/11/04 10:40:36;;;;;;;15.17;14.07;;;10.00;81.10;;;;;;5035826;28;20670;-87
2023/11/04 10:43:07;;;;;;;14.43;13.43;;;10.00;80.50;;;;;;5035570;28;20199;-87
2023/11/04 10:45:44;;;;;;;14.03;13.03;;;10.00;80.60;;;;;;5035693;28;20200;-87
2023/11/04 10:48:23;;;;;;;15.53;14.47;;;9.90;81.20;;;;;;5035563;28;20180;-88
2023/11/04 10:50:59;;;;;;;15.70;14.70;;;9.90;80.60;;;;;;5053809;28;20160;-87
2023/11/04 10:54:10;;;;;;;15.47;14.27;;;10.00;80.40;;;;;;5035572;28;20175;-88
2023/11/04 10:56:49;;;;;;;15.10;13.90;;;10.10;80.50;;;;;;5009178;28;20233;-87
2023/11/04 10:59:16;;;;;;;15.80;14.70;;;10.10;80.90;;;;;;5035559;28;20180;-88
2023/11/04 11:01:42;;;;;;;15.00;13.90;;;10.10;80.30;;;;;;5035385;28;20184;-87
2023/11/04 11:04:09;;;;;;;15.73;14.33;;;10.10;80.60;;;;;;5053259;28;20176;-88
2023/11/04 11:06:35;;;;;;;15.13;14.13;;;10.10;79.80;;;;;;5053367;28;20203;-87
2023/11/04 11:09:04;;;;;;;15.13;13.93;;;10.10;80.30;;;;;;5036226;28;20176;-87
2023/11/04 11:12:05;;;;;;;15.13;14.13;;;10.10;80.30;;;;;;5035315;28;20176;-88
2023/11/04 11:14:31;;;;;;;14.90;13.83;;;10.20;80.80;;;;;;5035300;28;20623;-88
2023/11/04 11:17:01;;;;;;;15.20;14.20;;;10.10;80.40;;;;;;5053072;28;20208;-89
2023/11/04 11:19:27;;;;;;;14.43;13.53;;;10.10;80.30;;;;;;5036179;28;20187;-88
2023/11/04 11:21:53;;;;;;;14.40;13.50;;;10.10;80.80;;;;;;5053163;28;20211;-88
2023/11/04 11:24:20;;;;;;;14.23;13.33;;;10.00;80.30;;;;;;5035876;28;20176;-87
2023/11/04 11:27:07;;;;;;;14.53;13.53;;;10.10;80.30;;;;;;5035359;28;20228;-87
2023/11/04 11:29:33;;;;;;;15.47;14.17;;;10.10;80.70;;;;;;5035221;28;20599;-88
2023/11/04 11:32:08;;;;;;;15.10;14.10;;;10.20;80.20;;;;;;5053237;28;20184;-87
2023/11/04 11:34:34;;;;;;;15.93;14.93;;;10.20;80.20;;;;;;5052991;28;20156;-87
2023/11/04 11:37:01;;;;;;;15.87;14.80;;;10.30;80.20;;;;;;5052844;28;20204;-87
2023/11/04 11:39:27;;;;;;;26.10;24.27;;;10.30;80.30;;;;;;5035119;28;20172;-88
2023/11/04 11:41:55;;;;;;;27.20;25.20;;;10.30;80.30;;;;;;5035027;28;20326;-89
2023/11/04 11:44:21;;;;;;;24.13;22.63;;;10.40;79.80;;;;;;5035359;28;20195;-87
2023/11/04 11:46:47;;;;;;;15.93;14.77;;;10.40;79.40;;;;;;5035105;28;20668;-88
2023/11/04 11:49:12;;;;;;;15.70;14.70;;;10.40;79.90;;;;;;5035137;28;20176;-88
2023/11/04 11:51:38;;;;;;;22.60;20.87;;;10.50;79.90;;;;;;5052924;28;20667;-87
2023/11/04 11:54:04;;;;;;;23.37;21.90;;;10.50;80.00;;;;;;5035314;28;20551;-87
2023/11/04 11:56:30;;;;;;;16.37;15.00;;;10.50;79.60;;;;;;5034855;28;20214;-88
2023/11/04 11:59:06;;;;;;;15.83;14.83;;;10.50;79.80;;;;;;5035216;28;20184;-87
2023/11/04 12:01:33;;;;;;;20.20;18.70;;;10.60;79.40;;;;;;5038735;28;20171;-88
2023/11/04 12:04:01;;;;;;;23.73;22.23;;;10.70;79.50;;;;;;5056592;28;20180;-88
2023/11/04 12:06:28;;;;;;;20.80;19.30;;;10.70;79.60;;;;;;5056570;28;20195;-87
2023/11/04 12:08:57;;;;;;;16.67;15.57;;;10.80;79.90;;;;;;5038492;28;20207;-88
2023/11/04 12:11:26;;;;;;;16.27;15.27;;;10.80;79.40;;;;;;5038735;28;20175;-87
2023/11/04 12:13:51;;;;;;;25.60;23.37;;;10.80;79.30;;;;;;5038668;28;20188;-87
2023/11/04 12:16:17;;;;;;;24.70;23.10;;;10.80;78.90;;;;;;5056399;28;20192;-87
2023/11/04 12:18:44;;;;;;;17.53;16.33;;;10.90;78.90;;;;;;5038493;28;20176;-87
2023/11/04 12:21:10;;;;;;;17.00;15.90;;;10.90;78.10;;;;;;5038434;28;20183;-88
2023/11/04 12:23:37;;;;;;;25.70;24.07;;;11.00;78.70;;;;;;5056501;28;20172;-88
2023/11/04 12:26:03;;;;;;;21.33;19.80;;;11.00;77.70;;;;;;5038344;28;20191;-87
2023/11/04 12:28:28;;;;;;;17.33;16.13;;;11.00;78.30;;;;;;5038788;28;20242;-87
2023/11/04 12:31:01;;;;;;;18.40;17.20;;;11.10;78.10;;;;;;5038388;28;20175;-87
2023/11/04 12:33:28;;;;;;;26.43;24.73;;;11.10;77.60;;;;;;5038183;28;20175;-87